Time;durP1;ratioP1;P1;durP2;ratioP2;P2;SDS_P1;SDS_P2;PMS_P1;PMS_P2;Temp;Humidity;BMP_temperature;BMP_pressure;BME280_temperature;BME280_humidity;BME280_pressure;Samples;Min_cycle;Max_cycle;Signal;HPM_P1;HPM_P2
2023/10/02 00:01:17;;;;;;;13.90;4.88;;;;;;;10.20;68.22;99645.06;4795649;29;20046;-76
2023/10/02 00:03:47;;;;;;;8.73;3.88;;;;;;;10.15;68.25;99636.44;4815670;29;20042;-76
2023/10/02 00:06:20;;;;;;;13.73;3.92;;;;;;;10.03;68.05;99605.38;4816234;29;20038;-77
2023/10/02 00:08:49;;;;;;;11.07;3.88;;;;;;;10.02;68.17;99621.84;4787218;29;20042;-76
2023/10/02 00:11:39;;;;;;;8.43;4.15;;;;;;;9.78;68.62;99577.00;4811384;29;20046;-76
2023/10/02 00:14:40;;;;;;;9.45;4.50;;;;;;;10.14;68.48;99639.91;4813546;29;20082;-75
2023/10/02 00:17:08;;;;;;;10.23;4.00;;;;;;;9.85;68.29;99601.19;4792029;29;20042;-74
2023/10/02 00:19:39;;;;;;;10.07;3.95;;;;;;;10.15;68.54;99649.44;4826481;29;20053;-73
2023/10/02 00:22:34;;;;;;;13.27;3.95;;;;;;;10.12;68.44;99644.25;4811619;29;20046;-76
2023/10/02 00:25:09;;;;;;;13.63;3.90;;;;;;;9.75;68.45;99587.41;4813467;29;20046;-74
2023/10/02 00:27:38;;;;;;;13.35;4.00;;;;;;;10.07;68.34;99644.31;4808063;29;20057;-74
2023/10/02 00:30:12;;;;;;;11.55;4.00;;;;;;;10.01;68.53;99639.16;4812517;29;20054;-71
2023/10/02 00:32:45;;;;;;;9.70;3.88;;;;;;;9.99;68.89;99632.25;4773399;29;20313;-73
2023/10/02 00:35:25;;;;;;;10.48;3.97;;;;;;;9.98;69.02;99633.97;4803282;29;20107;-73
2023/10/02 00:38:01;;;;;;;12.48;3.65;;;;;;;10.05;68.62;99645.19;4811326;29;20495;-71
2023/10/02 00:40:33;;;;;;;10.95;3.97;;;;;;;10.06;69.16;99649.50;4826137;29;20082;-73
2023/10/02 00:46:23;;;;;;;14.77;3.33;;;;;;;9.88;69.07;99630.59;4823827;29;20057;-73
2023/10/02 00:48:45;;;;;;;8.18;3.63;;;;;;;9.75;69.19;99621.19;4808243;29;20140;-74
2023/10/02 00:51:15;;;;;;;9.52;3.88;;;;;;;10.00;69.23;99652.19;4812180;29;20061;-73
2023/10/02 00:53:48;;;;;;;10.88;3.70;;;;;;;9.97;69.58;99649.59;4825782;29;20050;-73
2023/10/02 00:56:24;;;;;;;9.57;3.80;;;;;;;9.70;69.19;99610.84;4809948;29;20112;-74
2023/10/02 00:58:58;;;;;;;8.88;3.78;;;;;;;9.86;69.46;99644.50;4810968;29;20129;-75
2023/10/02 01:01:31;;;;;;;13.50;3.63;;;;;;;9.76;69.22;99626.38;4812640;29;20065;-74
2023/10/02 01:04:24;;;;;;;6.47;3.90;;;;;;;9.85;69.14;99643.63;4800472;29;20050;-74
2023/10/02 01:07:11;;;;;;;7.72;3.25;;;;;;;9.52;69.28;99590.19;4810441;29;20350;-74
2023/10/02 01:09:39;;;;;;;6.82;3.40;;;;;;;9.71;69.65;99628.13;4809913;29;20046;-73
2023/10/02 01:12:10;;;;;;;8.05;3.60;;;;;;;9.73;69.57;99635.94;4811471;29;20696;-74
2023/10/02 01:14:47;;;;;;;12.40;4.03;;;;;;;9.92;69.81;99660.91;4790729;29;20050;-74
2023/10/02 01:17:23;;;;;;;7.70;3.40;;;;;;;9.75;69.90;99636.78;4784689;29;20121;-73
2023/10/02 01:19:53;;;;;;;10.07;3.50;;;;;;;9.67;70.19;99620.38;4827082;29;20051;-73
2023/10/02 01:22:28;;;;;;;9.88;3.80;;;;;;;9.94;69.83;99664.34;4810285;29;20055;-75
2023/10/02 01:25:13;;;;;;;10.02;3.83;;;;;;;9.65;69.94;99623.84;4801104;29;20042;-75
2023/10/02 01:27:47;;;;;;;8.85;3.75;;;;;;;9.97;70.16;99668.63;4795326;29;20141;-73
2023/10/02 01:30:34;;;;;;;11.40;3.80;;;;;;;9.90;70.22;99667.84;4814196;29;20058;-74
2023/10/02 01:33:14;;;;;;;9.75;3.85;;;;;;;9.84;70.24;99654.03;4811174;29;20046;-73
2023/10/02 01:35:46;;;;;;;13.85;4.10;;;;;;;9.95;70.02;99668.66;4791355;29;20544;-74
2023/10/02 01:38:17;;;;;;;9.38;4.03;;;;;;;9.82;70.09;99643.63;4808488;29;20045;-73
2023/10/02 01:40:49;;;;;;;12.82;4.13;;;;;;;9.96;69.95;99669.50;4810919;29;20050;-73
2023/10/02 01:43:20;;;;;;;9.57;3.63;;;;;;;9.77;70.34;99624.66;4824919;29;20043;-74
2023/10/02 01:45:54;;;;;;;10.40;4.22;;;;;;;9.62;70.03;99616.09;4813407;29;20050;-72
2023/10/02 01:48:37;;;;;;;12.35;4.50;;;;;;;9.55;70.35;99588.44;4800152;29;20127;-75
2023/10/02 01:51:27;;;;;;;8.27;3.80;;;;;;;9.90;70.08;99661.78;4777414;29;20153;-73
2023/10/02 01:53:56;;;;;;;8.63;4.72;;;;;;;9.87;70.24;99656.63;4776849;29;20050;-74
2023/10/02 01:56:30;;;;;;;8.13;3.80;;;;;;;9.87;70.10;99652.25;4810031;29;20042;-73
2023/10/02 01:59:19;;;;;;;10.68;3.78;;;;;;;9.83;70.40;99655.75;4824963;29;20050;-73
2023/10/02 02:01:54;;;;;;;12.70;4.82;;;;;;;9.87;70.50;99660.06;4829067;29;20047;-74
2023/10/02 02:04:32;;;;;;;9.05;4.05;;;;;;;9.44;70.50;99605.84;4799742;29;20050;-73
2023/10/02 02:07:08;;;;;;;9.13;3.63;;;;;;;9.60;70.52;99633.41;4813947;29;20066;-74
2023/10/02 02:09:40;;;;;;;7.78;3.65;;;;;;;9.84;70.54;99682.63;4810136;29;20394;-73
2023/10/02 02:12:55;;;;;;;11.43;4.07;;;;;;;9.81;70.60;99683.53;4817346;29;20091;-73
2023/10/02 02:15:22;;;;;;;14.70;4.38;;;;;;;9.83;70.75;99670.50;4811006;29;20046;-75
2023/10/02 02:18:04;;;;;;;9.65;4.13;;;;;;;9.77;70.94;99655.81;4787478;29;20202;-74
2023/10/02 02:20:44;;;;;;;23.08;12.73;;;;;;;10.04;70.93;99690.28;4828079;29;20069;-75
2023/10/02 02:23:15;;;;;;;22.65;12.35;;;;;;;9.92;70.92;99655.69;4796220;29;20046;-74
2023/10/02 02:25:44;;;;;;;14.00;7.00;;;;;;;9.61;71.01;99597.91;4813240;29;20042;-75
2023/10/02 02:28:15;;;;;;;10.57;5.22;;;;;;;10.20;70.96;99685.78;4808064;29;20422;-77
2023/10/02 02:30:55;;;;;;;13.07;4.72;;;;;;;10.28;70.76;99685.69;4827601;29;20057;-73
2023/10/02 02:33:35;;;;;;;12.13;4.40;;;;;;;9.89;70.61;99614.13;4814269;29;20079;-81
2023/10/02 02:36:05;;;;;;;8.95;4.85;;;;;;;10.25;71.11;99669.28;4804226;29;20061;-77
2023/10/02 02:38:35;;;;;;;13.73;5.40;;;;;;;10.36;70.79;99676.97;4813396;29;20103;-76
2023/10/02 02:41:18;;;;;;;14.10;5.53;;;;;;;10.37;70.77;99668.25;4799778;29;20113;-75
2023/10/02 02:43:51;;;;;;;13.02;6.00;;;;;;;10.23;71.00;99654.53;4812656;29;20078;-76
2023/10/02 02:46:19;;;;;;;14.82;5.78;;;;;;;10.15;71.17;99627.78;4805358;29;20053;-74
2023/10/02 02:48:55;;;;;;;10.23;6.13;;;;;;;10.30;70.72;99653.63;4797206;29;20577;-74
2023/10/02 02:51:31;;;;;;;10.98;6.05;;;;;;;10.20;71.01;99633.78;4789629;29;20082;-75
2023/10/02 02:54:05;;;;;;;17.45;6.72;;;;;;;10.57;71.16;99684.59;4813814;29;20506;-76
2023/10/02 02:56:34;;;;;;;13.13;5.95;;;;;;;10.53;71.11;99662.97;4813334;29;20058;-76
2023/10/02 02:59:02;;;;;;;14.13;6.70;;;;;;;10.74;70.62;99681.81;4813560;29;20050;-76
2023/10/02 03:01:40;;;;;;;10.90;6.00;;;;;;;10.74;71.20;99676.59;4813518;29;20123;-75
2023/10/02 03:04:17;;;;;;;9.93;6.22;;;;;;;10.43;70.51;99620.56;4804711;29;20046;-75
2023/10/02 03:07:07;;;;;;;13.95;6.80;;;;;;;10.85;70.81;99686.00;4798138;29;20406;-76
2023/10/02 03:09:34;;;;;;;10.75;5.45;;;;;;;10.74;70.97;99638.41;4811878;29;20069;-76
2023/10/02 03:12:09;;;;;;;13.25;5.28;;;;;;;10.97;71.01;99668.50;4812713;29;20074;-75
2023/10/02 03:14:54;;;;;;;11.98;5.15;;;;;;;10.75;71.01;99608.06;4815617;29;20039;-76
2023/10/02 03:17:31;;;;;;;8.10;4.43;;;;;;;11.17;71.04;99681.28;4827512;29;20049;-73
2023/10/02 03:20:21;;;;;;;11.27;4.90;;;;;;;11.07;70.65;99649.28;4812184;29;20043;-75
2023/10/02 03:22:55;;;;;;;10.43;4.47;;;;;;;11.33;70.89;99681.06;4816995;29;20065;-74
2023/10/02 03:25:28;;;;;;;7.32;4.05;;;;;;;10.96;70.77;99617.31;4802561;29;20057;-75
2023/10/02 03:27:57;;;;;;;9.40;5.05;;;;;;;11.06;70.21;99613.72;4810585;29;20039;-75
2023/10/02 03:30:35;;;;;;;10.48;4.88;;;;;;;11.26;70.52;99656.84;4813467;29;20087;-76
2023/10/02 03:33:19;;;;;;;9.35;5.13;;;;;;;11.29;70.25;99662.03;4805164;29;20042;-74
2023/10/02 03:35:58;;;;;;;7.47;4.60;;;;;;;11.40;70.36;99677.50;4797469;29;20066;-73
2023/10/02 03:38:33;;;;;;;10.07;5.73;;;;;;;11.19;70.46;99650.88;4821511;29;20047;-74
2023/10/02 03:41:05;;;;;;;9.70;5.18;;;;;;;11.36;70.37;99676.69;4799937;29;20038;-74
2023/10/02 03:43:43;;;;;;;10.25;6.10;;;;;;;11.30;70.07;99682.81;4802097;29;20042;-75
2023/10/02 03:46:23;;;;;;;11.10;5.47;;;;;;;11.21;69.72;99664.72;4813270;29;20049;-75
2023/10/02 03:48:58;;;;;;;11.40;5.65;;;;;;;11.06;70.21;99651.91;4811116;29;20053;-74
2023/10/02 03:51:41;;;;;;;9.85;5.70;;;;;;;11.26;70.47;99677.69;4800461;29;20157;-73
2023/10/02 03:54:18;;;;;;;9.30;5.40;;;;;;;11.37;69.98;99678.38;4805256;29;20041;-73
2023/10/02 03:56:55;;;;;;;10.43;5.53;;;;;;;11.39;69.91;99667.97;4814085;29;20112;-72
2023/10/02 03:59:28;;;;;;;9.98;5.50;;;;;;;11.58;69.95;99687.66;4800996;29;20082;-74
2023/10/02 04:02:24;;;;;;;10.13;5.43;;;;;;;11.55;69.77;99692.91;4812396;29;20436;-77
2023/10/02 04:04:47;;;;;;;10.35;5.38;;;;;;;11.50;69.81;99658.22;4794232;29;20437;-76
2023/10/02 04:07:17;;;;;;;12.32;5.50;;;;;;;11.38;70.15;99617.59;4786361;29;20539;-78
2023/10/02 04:09:50;;;;;;;8.27;5.57;;;;;;;11.40;69.48;99630.59;4828325;29;20054;-78
2023/10/02 04:12:19;;;;;;;9.05;4.88;;;;;;;11.48;69.39;99626.13;4814088;29;20043;-79
2023/10/02 04:14:54;;;;;;;11.35;6.22;;;;;;;11.96;69.65;99680.13;4816015;29;20046;-83
2023/10/02 04:19:49;;;;;;;10.68;5.35;;;;;;;12.17;69.32;99698.94;4812472;29;20046;-83
2023/10/02 04:22:26;;;;;;;12.70;5.45;;;;;;;11.83;68.86;99634.25;4792750;29;20043;-78
2023/10/02 04:25:03;;;;;;;8.80;5.18;;;;;;;12.19;68.56;99699.78;4798089;29;20525;-76
2023/10/02 04:30:22;;;;;;;12.98;6.03;;;;;;;11.61;68.21;99629.41;4818641;29;20046;-79
2023/10/02 04:32:49;;;;;;;12.18;5.65;;;;;;;11.70;68.19;99664.88;4819387;29;20407;-77
2023/10/02 04:38:49;;;;;;;10.13;5.85;;;;;;;12.05;68.07;99713.03;4802517;29;20053;-77
2023/10/02 04:41:26;;;;;;;12.95;7.18;;;;;;;11.95;68.12;99709.69;4817010;29;20065;-78
2023/10/02 04:43:57;;;;;;;10.63;5.53;;;;;;;11.35;67.74;99622.88;4812677;29;20474;-76
2023/10/02 04:46:28;;;;;;;10.88;5.53;;;;;;;11.58;67.79;99656.38;4814263;29;20071;-77
2023/10/02 04:49:07;;;;;;;10.05;5.65;;;;;;;11.56;67.51;99681.59;4779688;29;20464;-75
2023/10/02 04:52:37;;;;;;;9.60;5.82;;;;;;;11.15;67.43;99607.50;4814688;29;20092;-77
2023/10/02 04:58:57;;;;;;;7.38;5.07;;;;;;;11.91;67.87;99731.47;4809924;29;20061;-78
2023/10/02 05:02:20;;;;;;;12.52;6.22;;;;;;;11.70;67.63;99662.28;4817218;29;20119;-80
2023/10/02 05:04:31;;;;;;;11.68;5.03;;;;;;;11.96;67.58;99693.16;4798891;29;20053;-76
2023/10/02 05:06:58;;;;;;;6.07;5.00;;;;;;;12.29;67.49;99739.59;4815006;29;20047;-76
2023/10/02 05:09:38;;;;;;;10.27;5.35;;;;;;;12.30;67.70;99708.25;4798322;29;20054;-76
2023/10/02 05:12:06;;;;;;;9.60;5.35;;;;;;;12.49;67.51;99716.63;4807824;29;20042;-73
2023/10/02 05:14:51;;;;;;;9.77;5.50;;;;;;;12.67;67.15;99732.00;4809002;29;20042;-74
2023/10/02 05:17:18;;;;;;;9.48;5.65;;;;;;;12.65;67.20;99721.56;4813385;29;20042;-75
2023/10/02 05:20:13;;;;;;;9.35;5.40;;;;;;;12.71;66.17;99733.63;4814071;29;20070;-75
2023/10/02 05:22:45;;;;;;;10.23;7.05;;;;;;;12.31;66.67;99683.88;4797362;29;20047;-78
2023/10/02 05:25:18;;;;;;;17.77;8.43;;;;;;;12.92;66.83;99753.25;4798356;29;20047;-78
2023/10/02 05:27:47;;;;;;;11.15;6.97;;;;;;;13.01;66.40;99752.22;4811942;29;20054;-78
2023/10/02 05:30:17;;;;;;;14.48;6.93;;;;;;;13.12;65.99;99752.88;4796426;29;20039;-74
2023/10/02 05:32:48;;;;;;;12.40;6.90;;;;;;;13.13;65.91;99741.50;4814383;29;20054;-75
2023/10/02 05:35:20;;;;;;;15.02;8.70;;;;;;;13.29;65.79;99756.91;4792622;29;20046;-79
2023/10/02 05:38:06;;;;;;;13.25;7.47;;;;;;;13.28;65.63;99734.28;4824904;29;20042;-77
2023/10/02 05:40:47;;;;;;;12.27;7.78;;;;;;;13.30;65.43;99727.25;4820934;29;20081;-77
2023/10/02 05:43:21;;;;;;;14.65;7.18;;;;;;;13.34;64.93;99721.09;4813050;29;20553;-75
2023/10/02 05:45:57;;;;;;;13.55;6.50;;;;;;;13.03;65.11;99680.75;4827290;29;20043;-77
2023/10/02 05:49:00;;;;;;;10.48;5.57;;;;;;;13.49;64.56;99748.66;4816912;29;20074;-76
2023/10/02 05:51:47;;;;;;;17.15;9.73;;;;;;;13.25;64.51;99701.22;4799798;29;20600;-72
2023/10/02 05:54:19;;;;;;;13.65;6.88;;;;;;;13.68;64.22;99763.03;4823693;29;20061;-71
2023/10/02 05:56:46;;;;;;;9.93;6.18;;;;;;;13.53;64.20;99730.28;4823788;29;20055;-73
2023/10/02 05:59:24;;;;;;;15.52;7.35;;;;;;;13.82;63.78;99767.97;4822312;29;21058;-78
2023/10/02 06:01:52;;;;;;;9.10;5.85;;;;;;;13.21;63.86;99632.50;4807339;29;20055;-73
2023/10/02 06:04:32;;;;;;;7.32;4.35;;;;;;;14.07;63.24;99766.53;4786543;29;20061;-71
2023/10/02 06:07:03;;;;;;;10.68;6.30;;;;;;;14.00;63.08;99745.75;4805051;29;20038;-72
2023/10/02 06:09:43;;;;;;;15.82;7.97;;;;;;;14.18;63.10;99776.75;4807369;29;20047;-77
2023/10/02 06:12:18;;;;;;;16.13;6.97;;;;;;;14.11;62.96;99753.34;4809731;29;20116;-76
2023/10/02 06:14:49;;;;;;;10.73;6.10;;;;;;;14.37;62.58;99769.28;4810397;29;20465;-74
2023/10/02 06:17:16;;;;;;;12.73;6.78;;;;;;;14.13;62.18;99717.53;4821241;29;20047;-73
2023/10/02 06:19:43;;;;;;;13.90;6.60;;;;;;;14.37;61.87;99767.53;4804157;29;20061;-74
2023/10/02 06:22:15;;;;;;;6.53;5.00;;;;;;;14.38;61.56;99765.78;4823119;29;20054;-76
2023/10/02 06:24:48;;;;;;;8.48;5.63;;;;;;;14.12;61.37;99713.19;4807636;29;20050;-75
2023/10/02 06:27:15;;;;;;;14.50;5.43;;;;;;;14.32;61.23;99748.47;4823550;29;20066;-72
2023/10/02 06:29:49;;;;;;;17.10;5.70;;;;;;;14.39;60.62;99765.75;4822146;29;20051;-72
2023/10/02 06:32:22;;;;;;;8.90;5.80;;;;;;;13.99;61.04;99725.72;4822901;29;20062;-77
2023/10/02 06:35:01;;;;;;;8.02;5.80;;;;;;;14.10;60.91;99746.38;4827497;29;20085;-77
2023/10/02 06:37:35;;;;;;;11.80;6.28;;;;;;;14.41;60.70;99784.91;4795381;29;20050;-75
2023/10/02 06:40:13;;;;;;;10.40;5.15;;;;;;;14.36;60.93;99801.59;4817973;29;20070;-73
2023/10/02 06:42:51;;;;;;;12.77;6.85;;;;;;;14.37;61.01;99801.56;4826205;29;20073;-73
2023/10/02 06:45:20;;;;;;;10.80;5.63;;;;;;;14.35;60.87;99798.13;4797142;29;20137;-73
2023/10/02 06:47:50;;;;;;;9.15;4.78;;;;;;;14.28;60.76;99784.34;4815094;29;20042;-70
2023/10/02 06:50:36;;;;;;;13.25;5.90;;;;;;;14.19;60.66;99765.38;4806158;29;20049;-70
2023/10/02 06:53:02;;;;;;;9.07;6.32;;;;;;;14.29;60.92;99764.25;4824390;29;20139;-75
2023/10/02 06:55:32;;;;;;;12.00;6.35;;;;;;;14.26;60.75;99762.56;4821450;29;20026;-70
2023/10/02 06:57:58;;;;;;;10.75;6.32;;;;;;;14.37;60.76;99769.28;4817868;29;20052;-70
2023/10/02 07:00:54;;;;;;;14.32;6.53;;;;;;;14.43;60.68;99769.13;4821904;29;20042;-71
2023/10/02 07:03:15;;;;;;;12.88;5.43;;;;;;;14.03;60.15;99708.19;4821248;29;20038;-69
2023/10/02 07:05:48;;;;;;;13.43;6.88;;;;;;;13.80;60.21;99693.91;4796915;29;20042;-70
2023/10/02 07:08:33;;;;;;;15.25;8.98;;;;;;;14.40;60.14;99796.28;4821135;29;20065;-73
2023/10/02 07:11:10;;;;;;;15.82;9.07;;;;;;;13.97;60.53;99719.66;4828676;29;20043;-70
2023/10/02 07:13:51;;;;;;;10.18;6.30;;;;;;;14.44;60.37;99786.56;4796472;29;20134;-80
2023/10/02 07:16:22;;;;;;;16.75;10.68;;;;;;;14.21;60.11;99742.66;4805715;29;20027;-75
2023/10/02 07:19:04;;;;;;;18.58;8.25;;;;;;;14.74;60.13;99805.91;4797509;29;20126;-75
2023/10/02 07:21:31;;;;;;;7.95;5.82;;;;;;;14.83;59.91;99811.81;4810756;29;20055;-76
2023/10/02 07:24:25;;;;;;;17.45;10.52;;;;;;;14.59;59.66;99752.13;4814474;29;20044;-73
2023/10/02 07:26:53;;;;;;;14.25;8.05;;;;;;;14.80;59.72;99783.06;4784732;30;20130;-75
2023/10/02 07:29:37;;;;;;;25.80;14.73;;;;;;;14.83;59.64;99794.31;4796019;29;20047;-80
2023/10/02 07:32:14;;;;;;;;;;;;;;;14.97;59.23;99816.69;4800468;30;20039;-74
2023/10/02 07:34:40;;;;;;;18.55;9.43;;;;;;;14.95;58.93;99835.06;4800032;29;19932;-79
2023/10/02 07:37:06;;;;;;;21.00;10.70;;;;;;;14.79;59.47;99804.94;4798191;30;20055;-71
2023/10/02 07:39:37;;;;;;;37.63;26.23;;;;;;;14.68;59.27;99769.38;4799552;29;20031;-78
2023/10/02 07:42:10;;;;;;;20.83;10.50;;;;;;;15.01;59.02;99821.78;4785958;30;20258;-73
2023/10/02 07:44:50;;;;;;;10.50;6.78;;;;;;;14.80;58.74;99815.34;4782525;30;20112;-74
2023/10/02 07:47:24;;;;;;;8.63;6.50;;;;;;;14.78;59.30;99852.97;4815425;29;20056;-78
2023/10/02 07:49:58;;;;;;;24.27;15.13;;;;;;;14.53;59.28;99796.81;4816812;29;20070;-74
2023/10/02 07:52:34;;;;;;;36.78;23.67;;;;;;;14.76;59.05;99851.25;4824470;29;20103;-74
2023/10/02 07:55:02;;;;;;;22.77;7.57;;;;;;;14.67;59.30;99813.94;4816659;29;20071;-73
2023/10/02 07:57:32;;;;;;;24.02;14.43;;;;;;;14.64;58.99;99820.13;4811559;29;20050;-74
2023/10/02 08:00:49;;;;;;;22.90;14.55;;;;;;;14.69;59.30;99809.53;4810959;29;20042;-80
2023/10/02 08:03:32;;;;;;;18.55;11.18;;;;;;;14.96;59.37;99836.78;4814294;29;20066;-74
2023/10/02 08:06:00;;;;;;;;;;;;;;;14.87;59.25;99840.50;4828069;29;20030;-73
2023/10/02 08:08:32;;;;;;;;;;;;;;;14.88;58.94;99841.38;4830423;29;19977;-75
2023/10/02 08:11:11;;;;;;;11.02;5.28;;;;;;;14.59;59.00;99814.13;4866976;24;20229;-71
2023/10/02 08:13:48;;;;;;;11.27;5.95;;;;;;;14.60;59.07;99829.78;4834021;29;20043;-69
2023/10/02 08:16:17;;;;;;;13.73;9.18;;;;;;;14.75;59.20;99853.94;4846713;29;20042;-75
2023/10/02 08:19:10;;;;;;;8.30;5.00;;;;;;;14.62;58.70;99814.06;4849532;29;20052;-75
2023/10/02 08:21:46;;;;;;;18.58;10.73;;;;;;;14.80;58.77;99827.59;4847967;29;20053;-77
2023/10/02 08:24:18;;;;;;;27.83;17.40;;;;;;;14.99;58.86;99841.94;4844938;29;20046;-75
2023/10/02 08:26:44;;;;;;;11.35;5.90;;;;;;;14.76;58.49;99792.78;4836182;29;20046;-74
2023/10/02 08:29:17;;;;;;;11.55;7.18;;;;;;;14.87;58.61;99808.22;4833401;29;20042;-76
2023/10/02 08:31:47;;;;;;;7.68;5.00;;;;;;;15.23;57.90;99870.16;4861040;29;20128;-72
2023/10/02 08:34:24;;;;;;;10.65;7.15;;;;;;;14.80;57.78;99806.66;4847277;29;20050;-73
2023/10/02 08:37:13;;;;;;;11.52;6.28;;;;;;;14.93;57.76;99847.31;4851795;29;20033;-74
2023/10/02 08:39:41;;;;;;;8.65;4.85;;;;;;;15.04;57.59;99879.38;4849015;29;20057;-78
2023/10/02 08:42:11;;;;;;;10.18;6.78;;;;;;;14.82;57.42;99865.94;4849293;29;20018;-77
2023/10/02 08:44:41;;;;;;;13.40;5.95;;;;;;;14.39;57.76;99815.50;4851775;29;20025;-76
2023/10/02 08:47:24;;;;;;;15.98;7.45;;;;;;;14.50;57.57;99867.59;4838395;29;20099;-76
2023/10/02 08:50:10;;;;;;;11.07;5.40;;;;;;;14.08;58.25;99816.19;4848180;29;20053;-77
2023/10/02 08:52:42;;;;;;;14.00;8.07;;;;;;;14.48;58.54;99902.53;4856822;29;20029;-78
2023/10/02 08:55:54;;;;;;;14.38;8.07;;;;;;;14.34;58.65;99895.88;4854501;29;20114;-77
2023/10/02 08:58:27;;;;;;;14.60;10.20;;;;;;;14.27;59.12;99884.69;4822559;29;20054;-79
2023/10/02 09:04:21;;;;;;;4.57;2.78;;;;;;;14.14;58.91;99894.56;4846029;29;20046;-74
2023/10/02 09:06:43;;;;;;;17.73;10.75;;;;;;;14.27;59.37;99897.78;4852536;29;20042;-73
2023/10/02 09:09:27;;;;;;;6.90;3.45;;;;;;;14.26;59.08;99876.84;4850286;29;20055;-74
2023/10/02 09:12:17;;;;;;;9.02;6.43;;;;;;;14.43;58.88;99900.91;4842735;29;20049;-69
2023/10/02 09:14:46;;;;;;;10.15;6.05;;;;;;;14.42;59.13;99893.94;4845885;29;20046;-71
2023/10/02 09:17:19;;;;;;;4.03;1.70;;;;;;;14.51;58.77;99908.56;4848590;29;20052;-71
2023/10/02 09:20:02;;;;;;;5.35;3.05;;;;;;;14.21;58.69;99839.50;4844856;29;20306;-72
2023/10/02 09:22:43;;;;;;;6.97;3.78;;;;;;;15.49;59.20;99900.91;4839068;29;20046;-69
2023/10/02 09:25:36;;;;;;;17.13;11.23;;;;;;;15.96;58.62;99764.91;4857068;29;20045;-66
2023/10/02 09:28:13;;;;;;;12.50;8.73;;;;;;;17.38;57.12;99886.31;4865844;29;20061;-70
2023/10/02 09:30:43;;;;;;;6.65;2.92;;;;;;;17.54;55.58;99887.47;4848267;29;20105;-77
2023/10/02 09:33:28;;;;;;;8.40;4.85;;;;;;;17.67;54.19;99897.53;4845449;29;20053;-77
2023/10/02 09:36:00;;;;;;;9.10;6.65;;;;;;;17.59;53.69;99889.91;4861379;29;20045;-75
2023/10/02 09:38:53;;;;;;;4.68;2.40;;;;;;;17.38;53.14;99881.91;4838296;29;20054;-76
2023/10/02 09:41:31;;;;;;;4.60;3.30;;;;;;;16.94;52.48;99839.59;4850910;29;20067;-71
2023/10/02 09:44:21;;;;;;;10.48;5.40;;;;;;;16.72;52.93;99816.69;4847628;29;20497;-72
2023/10/02 09:46:58;;;;;;;5.35;3.10;;;;;;;17.23;52.60;99898.22;4860559;29;20041;-76
2023/10/02 09:49:34;;;;;;;8.00;4.03;;;;;;;17.11;52.41;99881.94;4848090;29;20046;-72
2023/10/02 09:52:11;;;;;;;4.50;2.42;;;;;;;17.04;51.81;99893.59;4845735;29;20068;-71
2023/10/02 09:55:16;;;;;;;4.25;2.60;;;;;;;17.01;52.37;99906.84;4847741;29;20068;-72
2023/10/02 09:57:55;;;;;;;4.95;2.20;;;;;;;16.64;52.16;99868.66;4850243;29;20057;-69
2023/10/02 10:00:41;;;;;;;5.65;3.85;;;;;;;16.80;52.05;99903.13;4859572;29;20054;-76
2023/10/02 10:03:34;;;;;;;6.07;1.83;;;;;;;16.82;52.24;99898.69;4849881;29;20046;-76
2023/10/02 10:06:06;;;;;;;3.97;2.58;;;;;;;16.97;52.46;99913.13;4850333;29;20305;-77
2023/10/02 10:14:54;;;;;;;6.00;3.63;;;;;;;16.79;52.04;99896.16;4848702;29;20062;-75
2023/10/02 10:17:34;;;;;;;4.90;1.98;;;;;;;16.91;52.21;99914.16;4853808;29;20050;-80
2023/10/02 10:20:44;;;;;;;11.35;6.53;;;;;;;16.98;52.14;99909.56;4851385;29;20038;-79
2023/10/02 10:23:34;;;;;;;9.20;6.50;;;;;;;16.09;51.74;99761.88;4831039;29;20061;-76
2023/10/02 10:26:10;;;;;;;10.68;6.47;;;;;;;17.12;51.74;99904.69;4829777;29;20030;-77
2023/10/02 10:28:51;;;;;;;4.70;3.30;;;;;;;16.79;51.63;99831.34;4839347;29;20048;-70
2023/10/02 10:31:33;;;;;;;3.60;2.30;;;;;;;17.32;51.23;99908.44;4866974;29;20051;-79
2023/10/02 10:35:12;;;;;;;4.57;3.47;;;;;;;17.40;51.32;99906.38;4833139;29;20109;-74
2023/10/02 10:37:46;;;;;;;5.88;3.58;;;;;;;17.23;51.33;99879.81;4844642;29;20042;-75
2023/10/02 10:40:44;;;;;;;5.60;3.20;;;;;;;17.51;51.35;99895.47;4842192;29;20050;-73
2023/10/02 10:43:14;;;;;;;3.60;2.85;;;;;;;17.86;51.39;99902.97;4844638;29;20042;-74
2023/10/02 10:45:41;;;;;;;2.50;1.75;;;;;;;17.87;50.73;99834.50;4855680;29;20046;-76
2023/10/02 10:48:21;;;;;;;4.60;2.10;;;;;;;17.96;49.87;99832.41;4826791;29;20042;-73
2023/10/02 10:51:06;;;;;;;3.35;2.10;;;;;;;18.05;49.22;99824.19;4844035;29;20050;-74
2023/10/02 10:53:47;;;;;;;4.28;2.45;;;;;;;18.59;48.96;99871.22;4840822;29;20052;-75
2023/10/02 10:59:11;;;;;;;7.97;5.68;;;;;;;18.61;48.46;99872.88;4843908;29;20102;-77
2023/10/02 11:04:51;;;;;;;5.82;3.72;;;;;;;18.12;47.65;99836.19;4844388;29;20057;-75
2023/10/02 11:07:25;;;;;;;10.40;6.47;;;;;;;18.62;47.96;99907.97;4820707;29;20497;-76
2023/10/02 11:10:19;;;;;;;5.10;3.75;;;;;;;18.58;47.84;99891.44;4842958;29;20054;-75
2023/10/02 11:13:00;;;;;;;4.47;3.15;;;;;;;18.44;47.80;99873.56;4829294;29;20033;-78
2023/10/02 11:15:47;;;;;;;4.13;2.30;;;;;;;18.60;47.43;99902.78;4833751;29;20691;-75
2023/10/02 11:18:20;;;;;;;12.93;6.05;;;;;;;18.49;47.60;99883.91;4839485;29;20095;-84
2023/10/02 11:21:21;;;;;;;3.83;2.38;;;;;;;18.55;47.64;99910.00;4852631;29;20571;-85
2023/10/02 11:23:53;;;;;;;7.68;5.90;;;;;;;18.09;47.48;99844.22;4841981;29;20052;-83
2023/10/02 11:26:25;;;;;;;3.03;1.70;;;;;;;18.08;47.77;99866.22;4843668;29;20049;-77
2023/10/02 11:28:54;;;;;;;5.38;3.58;;;;;;;18.43;47.99;99908.72;4840974;29;20046;-76
2023/10/02 11:31:37;;;;;;;3.65;2.47;;;;;;;18.45;48.04;99877.03;4843109;29;20061;-76
2023/10/02 11:34:11;;;;;;;6.43;3.60;;;;;;;18.78;47.86;99897.66;4845926;29;20040;-81
2023/10/02 11:37:03;;;;;;;4.82;2.50;;;;;;;19.08;47.39;99902.63;4863343;29;20042;-81
2023/10/02 11:39:50;;;;;;;4.35;1.67;;;;;;;19.01;46.74;99869.50;4846454;29;20113;-84
2023/10/02 11:42:19;;;;;;;3.15;1.55;;;;;;;18.51;46.51;99818.84;4859770;29;20073;-83
2023/10/02 11:44:47;;;;;;;4.07;2.30;;;;;;;19.05;46.53;99908.03;4845500;29;20079;-83
2023/10/02 11:47:15;;;;;;;6.22;2.50;;;;;;;18.85;46.34;99878.06;4848129;29;20068;-81
2023/10/02 11:49:44;;;;;;;8.98;6.40;;;;;;;19.07;46.89;99869.25;4844296;29;20069;-79
2023/10/02 11:52:15;;;;;;;5.40;3.92;;;;;;;19.10;46.44;99867.34;4845023;29;20066;-82
2023/10/02 11:54:44;;;;;;;4.35;3.20;;;;;;;19.20;46.49;99880.13;4848810;29;21490;-78
2023/10/02 11:57:15;;;;;;;5.50;4.25;;;;;;;18.93;46.30;99849.56;4842905;29;20065;-75
2023/10/02 11:59:43;;;;;;;9.07;7.07;;;;;;;18.71;46.19;99849.63;4860399;29;20132;-76
2023/10/02 12:02:17;;;;;;;6.47;4.40;;;;;;;18.72;46.72;99885.63;4831417;29;20045;-76
2023/10/02 12:04:58;;;;;;;7.07;3.90;;;;;;;18.63;46.79;99900.03;4843027;29;20079;-77
2023/10/02 12:07:44;;;;;;;8.07;6.30;;;;;;;18.08;47.18;99846.91;4842908;29;20098;-77
2023/10/02 12:10:16;;;;;;;7.15;4.50;;;;;;;17.85;47.42;99843.34;4828272;29;20100;-78
2023/10/02 12:12:46;;;;;;;9.15;5.10;;;;;;;18.16;47.12;99900.13;4841847;29;20050;-77
2023/10/02 12:15:15;;;;;;;11.43;8.23;;;;;;;18.19;47.73;99913.19;4842381;29;20041;-82
2023/10/02 12:17:41;;;;;;;7.55;4.70;;;;;;;18.15;47.72;99915.06;4841312;29;20188;-80
2023/10/02 12:20:22;;;;;;;8.90;6.13;;;;;;;18.00;47.67;99899.84;4845372;29;20061;-79
2023/10/02 12:23:04;;;;;;;10.52;7.07;;;;;;;17.36;47.98;99817.97;4830773;29;20050;-78
2023/10/02 12:25:31;;;;;;;6.95;2.88;;;;;;;17.65;48.24;99897.59;4815498;29;20042;-82
2023/10/02 12:27:57;;;;;;;10.52;7.30;;;;;;;17.71;48.58;99914.94;4843297;29;20342;-78
2023/10/02 12:33:52;;;;;;;11.57;8.20;;;;;;;16.96;48.65;99777.34;4838279;29;20053;-79
2023/10/02 12:36:22;;;;;;;10.10;5.05;;;;;;;17.83;48.76;99917.13;4849759;29;20044;-77
2023/10/02 12:38:52;;;;;;;8.43;5.93;;;;;;;17.50;48.63;99870.06;4845174;29;20057;-75
2023/10/02 12:41:45;;;;;;;10.90;6.63;;;;;;;16.90;48.99;99772.28;4861825;24;20117;-77
2023/10/02 12:44:12;;;;;;;9.75;5.22;;;;;;;17.81;48.61;99926.84;4845958;29;20050;-78
2023/10/02 12:46:50;;;;;;;7.30;5.15;;;;;;;17.36;48.64;99835.53;4848682;29;20053;-78
2023/10/02 12:49:21;;;;;;;7.05;4.45;;;;;;;16.99;48.86;99761.47;4857278;29;20049;-79